TimeGMT,TemperatureF,Dew PointF,Humidity,Sea Level PressureIn,VisibilityMPH,Wind Direction,Wind SpeedMPH,Gust SpeedMPH,PrecipitationIn,Events,Conditions,WindDirDegrees,DateUTC
12:00 AM,40,38,91,29.81,12,West,8.9,,,Rain,Light Rain Showers,270,2012-12-04 00:00:00
12:00 AM,41.0,39.2,93,29.80,6.2,West,8.1,-,N/A,,Mostly Cloudy,270,2012-12-04 00:00:00
12:30 AM,41.0,37.4,87,29.80,6.2,West,11.5,-,N/A,,Mostly Cloudy,270,2012-12-04 00:30:00
1:00 AM,41.0,37.4,87,29.80,6.2,West,12.7,-,N/A,,Partly Cloudy,270,2012-12-04 01:00:00
1:30 AM,41.0,37.4,87,29.80,6.2,West,12.7,-,N/A,,Scattered Clouds,270,2012-12-04 01:30:00
2:00 AM,41.0,37.4,87,29.80,6.2,West,19.6,41.4,N/A,Rain,Light Rain Showers,280,2012-12-04 02:00:00
2:30 AM,41.0,37.4,87,29.80,6.2,West,11.5,-,N/A,,Mostly Cloudy,270,2012-12-04 02:30:00
3:00 AM,41.0,37.4,87,29.80,6.2,West,9.2,-,N/A,Rain,Light Rain Showers,280,2012-12-04 03:00:00
3:30 AM,41.0,37.4,87,29.80,5.6,West,18.4,32.2,N/A,Rain,Light Rain Showers,280,2012-12-04 03:30:00
4:00 AM,39.2,35.6,87,29.80,6.2,WNW,12.7,-,N/A,,Mostly Cloudy,290,2012-12-04 04:00:00
4:30 AM,39.2,37.4,93,29.80,6.2,WSW,6.9,-,N/A,,Mostly Cloudy,250,2012-12-04 04:30:00
5:00 AM,39.2,37.4,93,29.80,6.2,SW,9.2,-,N/A,,Mostly Cloudy,230,2012-12-04 05:00:00
5:30 AM,39.2,35.6,87,29.80,6.2,WSW,11.5,-,N/A,,Mostly Cloudy,250,2012-12-04 05:30:00
6:00 AM,39,36,84,29.79,12,West,6.7,,,Rain,Light Rain Showers,280,2012-12-04 06:00:00
6:00 AM,39.2,35.6,87,29.77,6.2,West,6.9,-,N/A,,Scattered Clouds,280,2012-12-04 06:00:00
6:30 AM,41.0,35.6,81,29.77,6.2,WNW,10.4,-,N/A,,Partly Cloudy,290,2012-12-04 06:30:00
7:00 AM,39.2,35.6,87,29.80,6.2,West,6.9,-,N/A,,Mostly Cloudy,280,2012-12-04 07:00:00
7:30 AM,39.2,35.6,87,29.77,6.2,West,13.8,-,N/A,,Partly Cloudy,270,2012-12-04 07:30:00
8:00 AM,39.2,35.6,87,29.77,6.2,West,16.1,27.6,N/A,,Partly Cloudy,280,2012-12-04 08:00:00
8:30 AM,39.2,35.6,87,29.77,6.2,West,11.5,-,N/A,,Partly Cloudy,270,2012-12-04 08:30:00
9:00 AM,41.0,35.6,81,29.77,6.2,West,15.0,-,N/A,,Partly Cloudy,270,2012-12-04 09:00:00
9:30 AM,41.0,37.4,87,29.77,6.2,West,15.0,-,N/A,,Partly Cloudy,270,2012-12-04 09:30:00
10:00 AM,41.0,37.4,87,29.77,6.2,WSW,18.4,-,N/A,,Partly Cloudy,250,2012-12-04 10:00:00
10:30 AM,41.0,37.4,87,29.77,6.2,West,18.4,-,N/A,,Scattered Clouds,260,2012-12-04 10:30:00
11:00 AM,42.8,37.4,81,29.77,6.2,West,13.8,-,N/A,,Partly Cloudy,260,2012-12-04 11:00:00
11:30 AM,44.6,37.4,76,29.74,6.2,WSW,15.0,-,N/A,,Partly Cloudy,250,2012-12-04 11:30:00
12:00 PM,45,40,75,29.75,12,WSW,17.9,,,,Partly Cloudy,250,2012-12-04 12:00:00
12:00 PM,44.6,39.2,81,29.74,6.2,WSW,17.3,-,N/A,,Scattered Clouds,250,2012-12-04 12:00:00
12:30 PM,46.4,41.0,81,29.71,4.3,WSW,15.0,-,N/A,Rain,Light Rain Showers,240,2012-12-04 12:30:00
1:00 PM,44.6,39.2,81,29.71,6.2,West,18.4,-,N/A,,Mostly Cloudy,270,2012-12-04 13:00:00
1:30 PM,44.6,41.0,87,29.68,6.2,WSW,15.0,-,N/A,Rain,Light Rain Showers,250,2012-12-04 13:30:00
2:00 PM,42.8,39.2,87,29.68,6.2,West,20.7,-,N/A,Rain,Light Rain Showers,280,2012-12-04 14:00:00
2:30 PM,44.6,41.0,87,29.65,6.2,WNW,11.5,-,N/A,,Scattered Clouds,290,2012-12-04 14:30:00
3:00 PM,46.4,39.2,76,29.65,6.2,West,18.4,-,N/A,Rain,Light Rain Showers,280,2012-12-04 15:00:00
3:30 PM,42.8,41.0,93,29.65,6.2,West,13.8,-,N/A,,Scattered Clouds,270,2012-12-04 15:30:00
4:00 PM,42.8,39.2,87,29.68,6.2,West,9.2,-,N/A,,Scattered Clouds,270,2012-12-04 16:00:00
4:30 PM,42.8,39.2,87,29.68,6.2,West,12.7,24.2,N/A,,Scattered Clouds,280,2012-12-04 16:30:00
5:00 PM,42.8,39.2,87,29.68,6.2,WNW,13.8,-,N/A,,Scattered Clouds,290,2012-12-04 17:00:00
5:30 PM,42.8,39.2,87,29.68,6.2,WNW,13.8,-,N/A,,Mostly Cloudy,300,2012-12-04 17:30:00
6:00 PM,41,38,86,29.71,12,NW,8.9,,,Rain,Light Rain Showers,310,2012-12-04 18:00:00
6:00 PM,41.0,39.2,93,29.71,6.2,NW,8.1,-,N/A,,Mostly Cloudy,310,2012-12-04 18:00:00
6:30 PM,41.0,39.2,93,29.71,6.2,West,2.3,-,N/A,,Scattered Clouds,270,2012-12-04 18:30:00
7:00 PM,41.0,39.2,93,29.71,6.2,West,4.6,-,N/A,,Scattered Clouds,260,2012-12-04 19:00:00
7:30 PM,42.8,39.2,87,29.71,6.2,WNW,11.5,-,N/A,,Partly Cloudy,290,2012-12-04 19:30:00
8:00 PM,41.0,37.4,87,29.71,6.2,West,9.2,-,N/A,,Partly Cloudy,280,2012-12-04 20:00:00
8:30 PM,41.0,39.2,93,29.71,6.2,WNW,8.1,-,N/A,,Scattered Clouds,290,2012-12-04 20:30:00
9:00 PM,41.0,39.2,93,29.71,6.2,NW,5.8,-,N/A,,Scattered Clouds,320,2012-12-04 21:00:00
9:30 PM,41.0,37.4,87,29.74,6.2,NW,5.8,-,N/A,,Scattered Clouds,310,2012-12-04 21:30:00
10:00 PM,41.0,37.4,87,29.74,6.2,NNW,8.1,-,N/A,,Scattered Clouds,330,2012-12-04 22:00:00
10:30 PM,41.0,37.4,87,29.77,6.2,NW,9.2,-,N/A,,Scattered Clouds,320,2012-12-04 22:30:00
11:00 PM,39.2,37.4,93,29.80,6.2,NW,8.1,-,N/A,,Mostly Cloudy,320,2012-12-04 23:00:00
11:30 PM,41.0,37.4,87,29.80,6.2,NW,10.4,-,N/A,,Partly Cloudy,320,2012-12-04 23:30:00